Charlie Lake, Canada
Current Conditions -  °F | °C
As of 12:00 AM on Monday 22 Dec 2014 (Local Time) from CYXJ Reporting Station
Moderate Fog Moderate Fog  
Wind Chill: -6°   Ceiling: 200
Heat Index:   Visibility: 0.5mi
Dew Point:   Wind: 5mph
Humidity: 85%   Direction: 360°N
Pressure: 29.62"   Gusts: NA
Location:  56.34°N, 121°W
Report Text: CYXJ 220700Z 36004KT 1/2SM R29/2400V3500FT/N FZFG VV002 M16/M18 A2962 RMK FG8 SLP085
Loading
Personal Weather Stations






























Interactive Weather Map New forecast layout! Learn more

10-Day Weather Forecast

Advertisements
Track Severe Weather on mobile